createdAt,value
2022-10-18T00:02:08.681Z,102487.13
2022-10-18T00:04:41.698Z,102481.22
2022-10-18T00:07:15.783Z,102483.94
2022-10-18T00:09:48.738Z,102487.88
2022-10-18T00:12:21.832Z,102483.81
2022-10-18T00:14:54.709Z,102487.00
2022-10-18T00:17:27.796Z,102484.50
2022-10-18T00:20:00.680Z,102492.25
2022-10-18T00:22:37.221Z,102495.44
2022-10-18T00:25:11.120Z,102493.41
2022-10-18T00:27:43.984Z,102496.22
2022-10-18T00:30:17.236Z,102492.84
2022-10-18T00:32:50.107Z,102493.63
2022-10-18T00:35:22.818Z,102487.22
2022-10-18T00:37:57.078Z,102489.56
2022-10-18T00:40:30.016Z,102487.50
2022-10-18T00:43:02.903Z,102498.47
2022-10-18T00:45:35.728Z,102502.38
2022-10-18T00:48:08.759Z,102504.25
2022-10-18T00:50:41.616Z,102503.84
2022-10-18T00:53:18.913Z,102507.41
2022-10-18T00:55:52.104Z,102498.69
2022-10-18T00:58:24.997Z,102509.63
2022-10-18T01:00:58.089Z,102504.03
2022-10-18T01:03:31.280Z,102504.03
2022-10-18T01:06:04.102Z,102512.69
2022-10-18T01:08:48.189Z,102513.50
2022-10-18T01:11:34.658Z,102511.81
2022-10-18T01:14:19.844Z,102520.84
2022-10-18T01:17:05.140Z,102521.53
2022-10-18T01:20:03.343Z,102512.66
2022-10-18T01:22:40.598Z,102506.69
2022-10-18T01:25:30.915Z,102509.88
2022-10-18T01:28:20.525Z,102520.94
2022-10-18T01:31:00.919Z,102512.28
2022-10-18T01:33:41.017Z,102518.53
2022-10-18T01:36:19.954Z,102513.44
2022-10-18T01:38:56.446Z,102511.31
2022-10-18T01:41:30.599Z,102510.88
2022-10-18T01:44:07.094Z,102509.72
2022-10-18T01:46:45.521Z,102519.91
2022-10-18T01:49:20.894Z,102513.91
2022-10-18T01:51:54.328Z,102519.44
2022-10-18T01:54:32.627Z,102519.91
2022-10-18T01:57:11.284Z,102524.53
2022-10-18T01:59:52.775Z,102529.16
2022-10-18T02:02:41.437Z,102529.09
2022-10-18T02:05:23.251Z,102530.69
2022-10-18T02:08:12.622Z,102524.63
2022-10-18T02:10:56.833Z,102527.38
2022-10-18T02:13:34.575Z,102529.63
2022-10-18T02:16:12.046Z,102533.53
2022-10-18T02:18:51.023Z,102535.47
2022-10-18T02:21:26.473Z,102536.47
2022-10-18T02:24:02.266Z,102531.31
2022-10-18T02:26:35.426Z,102530.59
2022-10-18T02:29:08.963Z,102543.41
2022-10-18T02:31:46.137Z,102533.63
2022-10-18T02:34:23.696Z,102530.94
2022-10-18T02:36:59.816Z,102532.53
2022-10-18T02:39:35.674Z,102536.41
2022-10-18T02:42:11.186Z,102529.53
2022-10-18T02:44:44.383Z,102529.28
2022-10-18T02:47:17.275Z,102529.16
2022-10-18T02:49:51.433Z,102521.25
2022-10-18T02:52:24.467Z,102522.66
2022-10-18T02:54:57.247Z,102526.22
2022-10-18T02:57:30.480Z,102524.88
2022-10-18T03:00:04.971Z,102534.22
2022-10-18T03:02:37.838Z,102528.69
2022-10-18T03:05:12.061Z,102526.28
2022-10-18T03:07:45.038Z,102529.19
2022-10-18T03:10:17.875Z,102532.50
2022-10-18T03:12:50.705Z,102534.22
2022-10-18T03:15:23.682Z,102538.03
2022-10-18T03:17:56.494Z,102537.16
2022-10-18T03:20:31.171Z,102532.06
2022-10-18T03:23:04.385Z,102530.34
2022-10-18T03:25:37.482Z,102527.59
2022-10-18T03:28:11.155Z,102535.78
2022-10-18T03:30:43.946Z,102534.44
2022-10-18T03:33:16.968Z,102533.28
2022-10-18T03:35:51.324Z,102531.25
2022-10-18T03:38:24.155Z,102532.28
2022-10-18T03:40:57.029Z,102535.13
2022-10-18T03:43:30.034Z,102528.81
2022-10-18T03:46:02.701Z,102536.28
2022-10-18T03:48:35.483Z,102538.16
2022-10-18T03:51:09.692Z,102529.53
2022-10-18T03:53:42.543Z,102530.78
2022-10-18T03:56:15.408Z,102539.75
2022-10-18T03:58:48.307Z,102539.56
2022-10-18T04:01:21.372Z,102538.41
2022-10-18T04:03:54.521Z,102535.66
2022-10-18T04:06:28.910Z,102525.34
2022-10-18T04:09:04.166Z,102526.75
2022-10-18T04:11:39.831Z,102520.50
2022-10-18T04:14:18.760Z,102520.16
2022-10-18T04:16:51.440Z,102522.81
2022-10-18T04:19:24.528Z,102522.81
2022-10-18T04:21:58.996Z,102535.00
2022-10-18T04:24:31.798Z,102534.91
2022-10-18T04:27:35.451Z,102541.22
2022-10-18T04:30:25.540Z,102539.97
2022-10-18T04:32:58.389Z,102543.16
2022-10-18T04:35:31.295Z,102541.56
2022-10-18T04:38:05.526Z,102555.50
2022-10-18T04:40:38.565Z,102546.66
2022-10-18T04:43:11.314Z,102547.47
2022-10-18T04:45:46.140Z,102556.22
2022-10-18T04:48:19.807Z,102549.78
2022-10-18T04:50:52.900Z,102546.13
2022-10-18T04:53:26.867Z,102554.59
2022-10-18T04:56:00.029Z,102558.28
2022-10-18T04:58:33.809Z,102569.56
2022-10-18T05:01:07.567Z,102571.19
2022-10-18T05:03:41.575Z,102567.72
2022-10-18T05:06:14.552Z,102566.81
2022-10-18T05:08:49.307Z,102567.41
2022-10-18T05:11:22.050Z,102576.13
2022-10-18T05:13:55.011Z,102581.53
2022-10-18T05:16:28.401Z,102579.81
2022-10-18T05:19:01.225Z,102569.59
2022-10-18T05:21:34.803Z,102574.75
2022-10-18T05:24:11.342Z,102577.84
2022-10-18T05:26:44.181Z,102579.00
2022-10-18T05:29:17.088Z,102591.41
2022-10-18T05:31:50.327Z,102590.97
2022-10-18T05:34:24.711Z,102582.69
2022-10-18T05:36:57.536Z,102577.19
2022-10-18T05:39:31.804Z,102581.69
2022-10-18T05:42:04.744Z,102577.88
2022-10-18T05:44:37.441Z,102579.03
2022-10-18T05:47:10.234Z,102590.75
2022-10-18T05:49:43.167Z,102582.47
2022-10-18T05:52:17.125Z,102580.66
2022-10-18T05:54:51.365Z,102598.09
2022-10-18T05:57:24.091Z,102603.50
2022-10-18T05:59:57.078Z,102604.16
2022-10-18T06:02:29.938Z,102607.25
2022-10-18T06:05:02.916Z,102611.94
2022-10-18T06:07:35.756Z,102613.66
2022-10-18T06:10:11.571Z,102611.63
2022-10-18T06:12:44.554Z,102607.22
2022-10-18T06:15:17.413Z,102628.13
2022-10-18T06:17:50.110Z,102627.88
2022-10-18T06:20:23.176Z,102629.25
2022-10-18T06:22:56.015Z,102624.22
2022-10-18T06:25:30.190Z,102626.28
2022-10-18T06:28:07.736Z,102632.00
2022-10-18T06:30:43.084Z,102640.75
2022-10-18T06:33:15.740Z,102640.53
2022-10-18T06:35:55.878Z,102641.97
2022-10-18T06:38:29.620Z,102630.88
2022-10-18T06:41:04.003Z,102638.22
2022-10-18T06:43:37.164Z,102645.56
2022-10-18T06:46:10.199Z,102656.00
2022-10-18T06:48:42.894Z,102646.94
2022-10-18T06:51:18.363Z,102653.84
2022-10-18T06:53:59.706Z,102658.03
2022-10-18T06:56:45.375Z,102665.25
2022-10-18T06:59:18.418Z,102668.72
2022-10-18T07:01:51.537Z,102664.34
2022-10-18T07:04:24.214Z,102665.25
2022-10-18T07:06:57.405Z,102669.50
2022-10-18T07:09:30.607Z,102669.28
2022-10-18T07:12:12.539Z,102676.63
2022-10-18T07:14:46.198Z,102680.19
2022-10-18T07:17:18.943Z,102682.59
2022-10-18T07:19:51.697Z,102679.72
2022-10-18T07:22:29.413Z,102684.19
2022-10-18T07:25:03.073Z,102682.72
2022-10-18T07:27:54.604Z,102701.50
2022-10-18T07:30:27.788Z,102713.00
2022-10-18T07:33:00.632Z,102708.41
2022-10-18T07:35:33.605Z,102710.97
2022-10-18T07:38:06.384Z,102712.34
2022-10-18T07:40:39.560Z,102711.66
2022-10-18T07:43:16.155Z,102716.03
2022-10-18T07:45:55.777Z,102731.06
2022-10-18T07:48:29.363Z,102729.13
2022-10-18T07:51:03.344Z,102731.88
2022-10-18T07:53:36.427Z,102737.66
2022-10-18T07:56:11.867Z,102732.72
2022-10-18T07:58:47.732Z,102743.06
2022-10-18T08:01:21.800Z,102744.78
2022-10-18T08:03:55.178Z,102752.16
2022-10-18T08:06:28.016Z,102739.28
2022-10-18T08:09:04.742Z,102731.25
2022-10-18T08:11:37.788Z,102746.41
2022-10-18T08:14:12.066Z,102752.16
2022-10-18T08:16:46.426Z,102743.69
2022-10-18T08:19:19.513Z,102739.41
2022-10-18T08:21:52.457Z,102741.47
2022-10-18T08:24:25.861Z,102757.91
2022-10-18T08:26:58.876Z,102764.91
2022-10-18T08:29:35.593Z,102759.25
2022-10-18T08:32:08.829Z,102756.97
2022-10-18T08:34:41.828Z,102750.97
2022-10-18T08:37:14.603Z,102753.75
2022-10-18T08:39:47.482Z,102759.13
2022-10-18T08:42:42.646Z,102766.38
2022-10-18T08:45:30.076Z,102758.16
2022-10-18T08:48:21.771Z,102749.31
2022-10-18T08:50:56.793Z,102758.13
2022-10-18T08:53:49.486Z,102753.16
2022-10-18T08:56:24.523Z,102751.09
2022-10-18T08:58:57.462Z,102753.91
2022-10-18T09:01:43.173Z,102756.69
2022-10-18T09:04:35.094Z,102756.69
2022-10-18T09:07:25.521Z,102761.41
2022-10-18T09:10:06.295Z,102763.31
2022-10-18T09:12:59.571Z,102772.44
2022-10-18T09:15:42.231Z,102772.84
2022-10-18T09:18:31.325Z,102769.34
2022-10-18T09:21:17.007Z,102773.22
2022-10-18T09:23:59.093Z,102774.09
2022-10-18T09:26:37.947Z,102779.09
2022-10-18T09:29:30.241Z,102787.84
2022-10-18T09:32:14.067Z,102787.63
2022-10-18T09:34:53.505Z,102792.88
2022-10-18T09:37:31.507Z,102789.44
2022-10-18T09:40:16.552Z,102790.09
2022-10-18T09:42:56.437Z,102803.84
2022-10-18T09:45:33.709Z,102812.69
2022-10-18T09:48:13.100Z,102814.28
2022-10-18T09:50:55.790Z,102814.75
2022-10-18T09:53:36.963Z,102818.69
2022-10-18T09:56:15.813Z,102812.47
2022-10-18T09:58:51.418Z,102814.19
2022-10-18T10:01:26.718Z,102816.69
2022-10-18T10:03:59.770Z,102820.50
2022-10-18T10:06:34.605Z,102834.22
2022-10-18T10:09:15.256Z,102832.16
2022-10-18T10:11:50.357Z,102821.88
2022-10-18T10:14:26.420Z,102825.56
2022-10-18T10:17:02.440Z,102818.13
2022-10-18T10:19:38.548Z,102825.25
2022-10-18T10:22:15.200Z,102827.31
2022-10-18T10:24:50.607Z,102823.75
2022-10-18T10:27:31.122Z,102831.31
2022-10-18T10:30:21.746Z,102837.88
2022-10-18T10:32:56.621Z,102842.41
2022-10-18T10:38:28.951Z,102842.66
2022-10-18T10:41:02.086Z,102850.72
2022-10-18T10:43:39.982Z,102838.84
2022-10-18T10:46:14.529Z,102851.53
2022-10-18T10:48:56.309Z,102854.47
2022-10-18T10:52:08.802Z,102857.78
2022-10-18T10:55:06.162Z,102862.25
2022-10-18T10:57:53.329Z,102860.28
2022-10-18T11:00:41.832Z,102855.94
2022-10-18T11:03:28.372Z,102851.63
2022-10-18T11:06:02.322Z,102866.13
2022-10-18T11:08:43.292Z,102864.59
2022-10-18T11:11:26.768Z,102870.16
2022-10-18T11:14:25.841Z,102859.19
2022-10-18T11:17:08.286Z,102860.34
2022-10-18T11:19:50.857Z,102871.09
2022-10-18T11:22:26.900Z,102862.50
2022-10-18T11:25:03.389Z,102860.59
2022-10-18T11:27:45.744Z,102852.25
2022-10-18T11:30:34.867Z,102850.69
2022-10-18T11:33:17.647Z,102846.75
2022-10-18T11:35:58.197Z,102842.00
2022-10-18T11:38:47.792Z,102841.25
2022-10-18T11:41:31.237Z,102848.06
2022-10-18T11:44:14.817Z,102859.69
2022-10-18T11:47:02.195Z,102853.72
2022-10-18T11:49:52.209Z,102851.81
2022-10-18T11:52:32.027Z,102850.63
2022-10-18T11:55:27.631Z,102858.22
2022-10-18T11:58:14.282Z,102855.03
2022-10-18T12:00:53.306Z,102858.63
2022-10-18T12:03:38.603Z,102859.03
2022-10-18T12:06:32.444Z,102867.06
2022-10-18T12:09:15.209Z,102859.09
2022-10-18T12:11:55.804Z,102849.91
2022-10-18T12:14:32.017Z,102848.31
2022-10-18T12:17:40.771Z,102854.31
2022-10-18T12:20:15.409Z,102853.91
2022-10-18T12:22:58.242Z,102846.38
2022-10-18T12:25:35.118Z,102847.16
2022-10-18T12:28:18.304Z,102847.19
2022-10-18T12:30:54.904Z,102840.78
2022-10-18T12:33:35.622Z,102842.41
2022-10-18T12:36:19.892Z,102843.63
2022-10-18T12:38:58.489Z,102836.84
2022-10-18T12:41:33.450Z,102843.22
2022-10-18T12:44:09.274Z,102834.84
2022-10-18T12:46:48.388Z,102840.81
2022-10-18T12:49:28.557Z,102839.63
2022-10-18T12:52:04.247Z,102844.81
2022-10-18T12:54:39.327Z,102843.22
2022-10-18T12:57:23.726Z,102848.41
2022-10-18T12:59:56.833Z,102848.00
2022-10-18T13:02:32.237Z,102845.56
2022-10-18T13:05:41.308Z,102829.63
2022-10-18T13:08:43.803Z,102835.56
2022-10-18T13:11:30.957Z,102843.09
2022-10-18T13:14:36.136Z,102832.31
2022-10-18T13:17:26.406Z,102832.31
2022-10-18T13:20:31.276Z,102825.56
2022-10-18T13:23:19.066Z,102830.34
2022-10-18T13:26:06.444Z,102825.44
2022-10-18T13:28:54.187Z,102821.84
2022-10-18T13:31:41.058Z,102816.25
2022-10-18T13:34:33.158Z,102812.63
2022-10-18T13:37:26.179Z,102817.38
2022-10-18T13:40:25.138Z,102813.34
2022-10-18T13:43:40.043Z,102816.06
2022-10-18T13:46:13.090Z,102823.63
2022-10-18T13:48:49.378Z,102818.00
2022-10-18T13:51:49.897Z,102805.13
2022-10-18T13:55:01.968Z,102818.63
2022-10-18T13:57:51.987Z,102815.72
2022-10-18T14:00:52.681Z,102818.50
2022-10-18T14:04:02.227Z,102822.31
2022-10-18T14:06:37.521Z,102822.31
2022-10-18T14:09:26.016Z,102813.97
2022-10-18T14:12:20.432Z,102815.03
2022-10-18T14:14:59.099Z,102830.06
2022-10-18T14:17:40.968Z,102810.53
2022-10-18T14:20:27.301Z,102808.84
2022-10-18T14:23:06.255Z,102815.19
2022-10-18T14:25:40.446Z,102824.97
2022-10-18T14:28:15.543Z,102824.44
2022-10-18T14:31:06.291Z,102807.66
2022-10-18T14:33:43.743Z,102825.03
2022-10-18T14:36:33.719Z,102832.97
2022-10-18T14:39:08.445Z,102823.25
2022-10-18T14:41:53.421Z,102816.13
2022-10-18T14:44:32.957Z,102829.22
2022-10-18T14:47:17.413Z,102815.50
2022-10-18T14:49:57.802Z,102813.19
2022-10-18T14:52:35.994Z,102827.72
2022-10-18T14:55:18.896Z,102819.28
2022-10-18T14:57:52.004Z,102817.66
2022-10-18T15:00:32.081Z,102830.72
2022-10-18T15:03:15.639Z,102834.94
2022-10-18T15:05:59.505Z,102826.88
2022-10-18T15:08:39.608Z,102829.59
2022-10-18T15:11:22.700Z,102830.06
2022-10-18T15:13:56.484Z,102827.25
2022-10-18T15:16:33.895Z,102828.09
2022-10-18T15:19:08.951Z,102821.31
2022-10-18T15:22:19.884Z,102831.63
2022-10-18T15:25:08.335Z,102825.97
2022-10-18T15:30:24.124Z,102825.44
2022-10-18T15:32:58.645Z,102828.16
2022-10-18T15:35:36.409Z,102833.22
2022-10-18T15:38:29.400Z,102835.97
2022-10-18T15:41:02.407Z,102831.19
2022-10-18T15:43:36.084Z,102841.00
2022-10-18T15:46:30.953Z,102835.75
2022-10-18T15:49:48.299Z,102836.44
2022-10-18T15:52:39.062Z,102822.09
2022-10-18T15:55:49.934Z,102826.75
2022-10-18T15:58:26.486Z,102832.31
2022-10-18T16:01:01.801Z,102827.50
2022-10-18T16:03:36.194Z,102837.72
2022-10-18T16:06:18.209Z,102836.88
2022-10-18T16:08:53.722Z,102839.16
2022-10-18T16:11:30.259Z,102837.56
2022-10-18T16:14:03.191Z,102839.66
2022-10-18T16:16:36.302Z,102830.47
2022-10-18T16:19:18.838Z,102836.31
2022-10-18T16:21:55.151Z,102841.06
2022-10-18T16:24:28.913Z,102837.78
2022-10-18T16:27:03.236Z,102842.56
2022-10-18T16:29:36.900Z,102840.84
2022-10-18T16:32:12.433Z,102840.41
2022-10-18T16:34:45.520Z,102837.66
2022-10-18T16:37:22.473Z,102834.44
2022-10-18T16:40:02.369Z,102831.91
2022-10-18T16:42:39.876Z,102829.94
2022-10-18T16:45:16.883Z,102837.63
2022-10-18T16:47:52.765Z,102849.88
2022-10-18T16:50:29.858Z,102846.97
2022-10-18T16:53:10.931Z,102846.53
2022-10-18T16:55:44.736Z,102848.72
2022-10-18T16:58:21.339Z,102850.44
2022-10-18T17:00:56.977Z,102860.56
2022-10-18T17:03:31.901Z,102864.31
2022-10-18T17:06:16.924Z,102864.22
2022-10-18T17:09:03.517Z,102864.13
2022-10-18T17:11:52.998Z,102869.78
2022-10-18T17:14:44.211Z,102873.69
2022-10-18T17:17:24.836Z,102868.19
2022-10-18T17:20:02.469Z,102877.75
2022-10-18T17:22:41.411Z,102877.84
2022-10-18T17:25:15.995Z,102886.94
2022-10-18T17:27:53.591Z,102886.88
2022-10-18T17:30:32.302Z,102880.25
2022-10-18T17:33:10.290Z,102890.16
2022-10-18T17:35:44.216Z,102884.00
2022-10-18T17:39:16.588Z,102882.03
2022-10-18T17:42:07.336Z,102876.69
2022-10-18T17:45:42.192Z,102885.34
2022-10-18T17:49:09.221Z,102892.13
2022-10-18T17:55:59.013Z,102895.06
2022-10-18T17:59:00.584Z,102901.13
2022-10-18T18:02:14.396Z,102905.59
2022-10-18T18:05:25.023Z,102904.63
2022-10-18T18:08:46.788Z,102906.56
2022-10-18T18:11:54.061Z,102911.38
2022-10-18T18:14:39.183Z,102908.22
2022-10-18T18:17:56.022Z,102910.72
2022-10-18T18:21:05.454Z,102906.16
2022-10-18T18:24:12.858Z,102908.47
2022-10-18T18:30:30.655Z,102905.63
2022-10-18T18:33:20.965Z,102898.69
2022-10-18T18:36:11.003Z,102912.66
2022-10-18T18:39:13.001Z,102905.09
2022-10-18T18:42:12.971Z,102916.41
2022-10-18T18:45:06.384Z,102920.44
2022-10-18T18:47:51.683Z,102918.03
2022-10-18T18:51:00.117Z,102923.25
2022-10-18T18:56:58.005Z,102917.16
2022-10-18T18:59:38.773Z,102920.16
2022-10-18T19:02:22.259Z,102913.00
2022-10-18T19:04:55.450Z,102913.16
2022-10-18T19:07:31.928Z,102917.88
2022-10-18T19:10:06.030Z,102926.06
2022-10-18T19:12:40.555Z,102913.72
2022-10-18T19:15:22.591Z,102914.44
2022-10-18T19:18:31.722Z,102920.75
2022-10-18T19:21:12.391Z,102916.28
2022-10-18T19:23:46.012Z,102915.16
2022-10-18T19:26:44.593Z,102916.31
2022-10-18T19:29:40.929Z,102913.06
2022-10-18T19:32:37.250Z,102920.91
2022-10-18T19:35:13.497Z,102916.97
2022-10-18T19:41:29.505Z,102913.28
2022-10-18T19:44:20.377Z,102915.59
2022-10-18T19:47:56.715Z,102910.75
2022-10-18T19:50:41.876Z,102911.22
2022-10-18T20:01:29.344Z,102904.31
2022-10-18T20:04:03.844Z,102899.47
2022-10-18T20:06:42.820Z,102903.38
2022-10-18T20:09:20.752Z,102901.66
2022-10-18T20:11:53.988Z,102895.81
2022-10-18T20:14:28.414Z,102897.63
2022-10-18T20:17:01.301Z,102896.03
2022-10-18T20:19:34.427Z,102888.69
2022-10-18T20:22:10.164Z,102888.00
2022-10-18T20:24:43.004Z,102884.09
2022-10-18T20:27:16.192Z,102885.56
2022-10-18T20:29:49.171Z,102885.91
2022-10-18T20:32:22.158Z,102884.88
2022-10-18T20:34:54.878Z,102887.75
2022-10-18T20:37:29.703Z,102884.50
2022-10-18T20:40:02.647Z,102894.63
2022-10-18T20:42:35.752Z,102884.50
2022-10-18T20:45:08.886Z,102891.53
2022-10-18T20:47:41.568Z,102888.44
2022-10-18T20:50:14.400Z,102890.28
2022-10-18T20:52:51.297Z,102888.88
2022-10-18T20:55:24.155Z,102880.59
2022-10-18T20:57:56.935Z,102877.84
2022-10-18T21:00:29.659Z,102878.19
2022-10-18T21:03:03.108Z,102880.03
2022-10-18T21:05:36.026Z,102886.34
2022-10-18T21:08:10.244Z,102877.59
2022-10-18T21:10:43.154Z,102890.91
2022-10-18T21:13:15.943Z,102891.59
2022-10-18T21:15:55.205Z,102890.81
2022-10-18T21:18:29.100Z,102894.00
2022-10-18T21:21:09.295Z,102877.47
2022-10-18T21:23:44.056Z,102888.16
2022-10-18T21:26:18.685Z,102882.50
2022-10-18T21:28:52.608Z,102883.03
2022-10-18T21:31:26.893Z,102883.53
2022-10-18T21:34:01.423Z,102879.16
2022-10-18T21:36:35.899Z,102878.56
2022-10-18T21:39:13.442Z,102873.16
2022-10-18T21:41:47.034Z,102875.66
2022-10-18T21:44:19.900Z,102870.97
2022-10-18T21:46:52.771Z,102871.66
2022-10-18T21:49:26.321Z,102865.34
2022-10-18T21:52:03.323Z,102867.09
2022-10-18T21:54:37.464Z,102877.75
2022-10-18T21:57:10.168Z,102891.06
2022-10-18T21:59:42.866Z,102890.06
2022-10-18T22:02:15.954Z,102878.31
2022-10-18T22:04:49.724Z,102880.53
2022-10-18T22:07:22.496Z,102874.06
2022-10-18T22:09:56.587Z,102872.47
2022-10-18T22:12:29.398Z,102876.38
2022-10-18T22:15:02.714Z,102885.63
2022-10-18T22:17:35.891Z,102886.44
2022-10-18T22:20:10.190Z,102888.41
2022-10-18T22:22:42.968Z,102890.56
2022-10-18T22:25:17.241Z,102888.94
2022-10-18T22:27:50.240Z,102885.25
2022-10-18T22:30:22.925Z,102878.94
2022-10-18T22:32:56.587Z,102888.19
2022-10-18T22:35:29.535Z,102886.72
2022-10-18T22:38:02.503Z,102891.63
2022-10-18T22:40:36.740Z,102887.94
2022-10-18T22:43:09.472Z,102888.59
2022-10-18T22:45:42.634Z,102886.66
2022-10-18T22:48:15.422Z,102886.84
2022-10-18T22:50:48.213Z,102885.59
2022-10-18T22:53:21.033Z,102886.75
2022-10-18T22:55:55.445Z,102879.13
2022-10-18T22:58:28.315Z,102884.19
2022-10-18T23:01:02.611Z,102881.63
2022-10-18T23:03:35.662Z,102881.16
2022-10-18T23:06:19.022Z,102879.22
2022-10-18T23:08:52.734Z,102883.75
2022-10-18T23:11:28.287Z,102877.44
2022-10-18T23:14:01.552Z,102875.19
2022-10-18T23:16:34.525Z,102876.53
2022-10-18T23:19:07.178Z,102881.56
2022-10-18T23:21:40.024Z,102881.75
2022-10-18T23:24:12.755Z,102876.38
2022-10-18T23:26:46.815Z,102871.41
2022-10-18T23:29:19.681Z,102873.69
2022-10-18T23:31:52.481Z,102865.59
2022-10-18T23:34:25.256Z,102866.75
2022-10-18T23:36:58.162Z,102868.72
2022-10-18T23:39:30.997Z,102864.69
2022-10-18T23:42:06.089Z,102862.28
2022-10-18T23:44:38.867Z,102862.13
2022-10-18T23:47:11.863Z,102876.84
2022-10-18T23:49:44.419Z,102874.28
2022-10-18T23:52:17.171Z,102877.22
2022-10-18T23:54:49.929Z,102873.00
2022-10-18T23:57:24.195Z,102870.72
2022-10-18T23:59:56.983Z,102862.94
